Time;durP1;ratioP1;P1;durP2;ratioP2;P2;SDS_P1;SDS_P2;PMS_P1;PMS_P2;Temp;Humidity;BMP_temperature;BMP_pressure;BME280_temperature;BME280_humidity;BME280_pressure;Samples;Min_cycle;Max_cycle;Signal;HPM_P1;HPM_P2
2022/01/07 00:01:07;;;;;;;14.52;4.50;;;;;;;3.13;84.01;101280.44;5095875;28;20103;-66
2022/01/07 00:03:32;;;;;;;11.85;4.28;;;;;;;3.13;84.96;101275.31;5095934;28;20031;-68
2022/01/07 00:05:59;;;;;;;10.95;3.83;;;;;;;2.99;84.06;101250.09;5095781;28;20012;-67
2022/01/07 00:08:25;;;;;;;14.63;4.07;;;;;;;3.13;85.54;101264.31;5096089;28;20510;-65
2022/01/07 00:10:50;;;;;;;12.15;4.15;;;;;;;2.91;86.71;101260.16;5077547;28;20433;-65
2022/01/07 00:13:15;;;;;;;17.90;5.18;;;;;;;2.84;87.40;101264.94;5077539;28;20020;-65
2022/01/07 00:15:41;;;;;;;8.38;4.15;;;;;;;2.87;87.99;101266.44;5095493;28;20020;-66
2022/01/07 00:18:07;;;;;;;14.32;5.10;;;;;;;2.86;88.57;101259.72;5077462;28;20081;-65
2022/01/07 00:20:32;;;;;;;14.63;5.28;;;;;;;2.70;88.89;101260.13;5077428;28;20028;-66
2022/01/07 00:22:58;;;;;;;18.83;4.68;;;;;;;2.74;88.82;101253.06;5095419;28;20055;-65
2022/01/07 00:25:24;;;;;;;10.90;4.18;;;;;;;2.71;89.10;101244.72;5095463;28;20474;-67
2022/01/07 00:27:50;;;;;;;14.48;4.90;;;;;;;2.69;89.88;101238.91;5095450;28;20027;-65
2022/01/07 00:30:17;;;;;;;9.70;4.07;;;;;;;2.71;89.76;101237.06;5077176;28;20024;-65
2022/01/07 00:32:43;;;;;;;13.60;4.70;;;;;;;2.70;90.09;101230.34;5095356;28;20467;-65
2022/01/07 00:35:10;;;;;;;16.08;4.90;;;;;;;2.68;90.42;101219.44;5095155;28;20024;-66
2022/01/07 00:37:36;;;;;;;15.18;4.82;;;;;;;2.69;90.76;101215.94;5095239;28;20058;-66
2022/01/07 00:40:04;;;;;;;11.77;4.75;;;;;;;2.56;90.53;101209.41;5095507;28;20028;-66
2022/01/07 00:42:29;;;;;;;14.57;5.47;;;;;;;2.55;91.17;101200.94;5077178;28;20490;-67
2022/01/07 00:44:55;;;;;;;13.20;4.93;;;;;;;2.65;91.06;101189.06;5076837;28;20012;-66
2022/01/07 00:47:20;;;;;;;16.13;4.95;;;;;;;2.63;90.60;101193.47;5095055;28;20060;-67
2022/01/07 00:49:45;;;;;;;10.98;4.82;;;;;;;2.53;91.06;101195.16;5094915;28;20433;-66
2022/01/07 00:52:11;;;;;;;18.38;5.25;;;;;;;2.49;91.58;101171.63;5076709;28;20024;-67
2022/01/07 00:54:36;;;;;;;16.35;5.30;;;;;;;2.45;91.40;101175.38;5076660;28;20016;-65
2022/01/07 00:57:02;;;;;;;15.77;4.90;;;;;;;2.49;91.30;101181.84;5094634;28;20044;-67
2022/01/07 00:59:27;;;;;;;16.55;4.80;;;;;;;2.50;91.06;101182.63;5076642;28;20028;-65
2022/01/07 01:01:53;;;;;;;10.40;4.50;;;;;;;2.53;91.02;101177.28;5076539;28;20027;-64
2022/01/07 01:04:19;;;;;;;13.18;4.53;;;;;;;2.57;90.06;101175.31;5093765;28;20059;-65
2022/01/07 01:06:45;;;;;;;16.05;4.75;;;;;;;2.43;90.83;101172.13;5076429;28;20047;-65
2022/01/07 01:09:12;;;;;;;19.70;5.63;;;;;;;2.50;91.71;101172.44;5094612;28;20054;-66
2022/01/07 01:11:37;;;;;;;15.85;5.03;;;;;;;2.59;91.65;101174.25;5094569;28;20467;-65
2022/01/07 01:14:04;;;;;;;16.55;4.85;;;;;;;2.42;91.58;101162.88;5076308;28;20028;-65
2022/01/07 01:16:31;;;;;;;13.77;5.25;;;;;;;2.56;91.44;101173.69;5076191;28;20028;-64
2022/01/07 01:18:56;;;;;;;9.48;3.90;;;;;;;2.53;90.53;101156.06;5094359;28;20027;-63
2022/01/07 01:21:21;;;;;;;18.05;4.80;;;;;;;2.57;91.19;101173.56;5094967;28;20028;-66
2022/01/07 01:23:47;;;;;;;14.02;4.07;;;;;;;2.62;91.27;101160.44;5094305;28;20107;-65
2022/01/07 01:26:13;;;;;;;12.82;4.82;;;;;;;2.62;91.40;101161.25;5094279;28;20103;-66
2022/01/07 01:28:39;;;;;;;10.75;4.90;;;;;;;2.59;91.58;101150.47;5094133;28;20028;-65
2022/01/07 01:31:04;;;;;;;13.40;4.70;;;;;;;2.57;92.12;101148.06;5094143;28;20034;-65
2022/01/07 01:33:30;;;;;;;11.18;4.22;;;;;;;2.47;92.83;101142.91;5094701;28;20059;-66
2022/01/07 01:35:55;;;;;;;11.43;4.57;;;;;;;2.55;93.16;101141.47;5075784;28;20024;-65
2022/01/07 01:38:20;;;;;;;11.00;4.60;;;;;;;2.46;92.83;101145.56;5094112;28;20020;-66
2022/01/07 01:40:46;;;;;;;14.98;5.22;;;;;;;2.53;92.65;101136.47;5075842;28;20062;-66
2022/01/07 01:43:11;;;;;;;11.48;4.38;;;;;;;2.47;93.28;101139.53;5075796;28;20020;-66
2022/01/07 01:45:36;;;;;;;17.80;5.72;;;;;;;2.55;93.32;101139.72;5094235;28;20020;-66
2022/01/07 01:48:02;;;;;;;17.95;5.15;;;;;;;2.59;93.78;101124.94;5093915;28;20421;-66
2022/01/07 01:50:27;;;;;;;14.13;5.35;;;;;;;2.52;93.71;101119.56;5094453;28;20111;-66
2022/01/07 01:52:56;;;;;;;17.52;5.93;;;;;;;2.58;93.47;101106.28;5075614;28;20489;-66
2022/01/07 01:55:25;;;;;;;12.55;5.22;;;;;;;2.60;93.33;101126.59;5094080;28;20071;-66
2022/01/07 01:57:52;;;;;;;13.05;5.10;;;;;;;2.61;92.68;101113.69;5075600;28;20056;-67
2022/01/07 02:00:19;;;;;;;13.50;5.20;;;;;;;2.57;92.82;101114.88;5093794;28;20130;-66
2022/01/07 02:02:44;;;;;;;14.20;5.38;;;;;;;2.46;93.31;101080.03;5093751;28;20023;-66
2022/01/07 02:05:10;;;;;;;12.20;5.78;;;;;;;2.66;93.31;101106.47;5093706;28;20016;-66
2022/01/07 02:07:38;;;;;;;15.70;5.60;;;;;;;2.76;93.21;101103.16;5093700;28;20028;-66
2022/01/07 02:10:05;;;;;;;13.48;5.40;;;;;;;2.63;92.60;101086.31;5075551;28;20474;-66
2022/01/07 02:12:30;;;;;;;11.65;6.00;;;;;;;2.61;93.08;101075.41;5093861;28;20420;-65
2022/01/07 02:14:58;;;;;;;12.70;5.47;;;;;;;2.66;92.53;101087.81;5093251;28;20023;-65
2022/01/07 02:17:25;;;;;;;16.88;6.72;;;;;;;2.54;93.22;101063.31;5093554;28;20016;-66
2022/01/07 02:19:51;;;;;;;13.32;6.63;;;;;;;2.71;92.95;101099.25;5075485;28;20161;-65
2022/01/07 02:22:17;;;;;;;16.92;6.43;;;;;;;2.69;92.81;101093.44;5093561;28;20522;-65
2022/01/07 02:24:47;;;;;;;13.00;6.63;;;;;;;2.78;93.05;101079.13;5075371;28;20108;-65
2022/01/07 02:27:14;;;;;;;16.10;6.25;;;;;;;2.80;92.36;101077.25;5093818;28;20111;-66
2022/01/07 02:29:40;;;;;;;12.88;6.25;;;;;;;2.69;93.24;101079.88;5093595;28;20040;-65
2022/01/07 02:32:06;;;;;;;14.15;6.07;;;;;;;2.67;93.06;101067.25;5093413;28;20031;-66
2022/01/07 02:34:32;;;;;;;12.88;6.18;;;;;;;2.70;92.95;101059.34;5075255;28;20062;-65
2022/01/07 02:36:57;;;;;;;13.75;6.28;;;;;;;2.79;92.73;101052.66;5093386;28;20478;-66
2022/01/07 02:39:22;;;;;;;21.35;5.88;;;;;;;2.87;93.03;101057.91;5093331;28;20101;-66
2022/01/07 02:41:47;;;;;;;11.60;6.43;;;;;;;2.90;92.77;101059.41;5075217;28;20023;-66
2022/01/07 02:44:13;;;;;;;11.57;5.82;;;;;;;2.79;92.61;101051.84;5093869;28;20145;-66
2022/01/07 02:46:39;;;;;;;11.40;5.97;;;;;;;2.65;92.86;101051.28;5093194;28;20458;-66
2022/01/07 02:49:11;;;;;;;11.15;5.53;;;;;;;2.76;92.41;101052.09;5093237;28;20024;-66
2022/01/07 02:51:38;;;;;;;12.55;5.82;;;;;;;2.71;92.33;101053.31;5093300;28;20463;-66
2022/01/07 02:54:04;;;;;;;14.10;5.80;;;;;;;2.61;92.62;101047.34;5093182;28;20024;-66
2022/01/07 02:56:30;;;;;;;8.48;4.68;;;;;;;2.70;92.46;101048.31;5092943;28;20075;-65
2022/01/07 02:58:55;;;;;;;10.40;5.18;;;;;;;2.75;92.61;101030.06;5093173;28;20118;-66
2022/01/07 03:01:20;;;;;;;14.05;5.25;;;;;;;2.77;92.68;101040.97;5075079;28;20435;-66
2022/01/07 03:03:45;;;;;;;13.80;5.70;;;;;;;2.83;92.26;101033.59;5075049;28;20063;-66
2022/01/07 03:06:11;;;;;;;13.40;5.68;;;;;;;2.82;92.87;101038.81;5093074;28;20016;-67
2022/01/07 03:08:36;;;;;;;16.00;5.40;;;;;;;2.83;92.22;101033.59;5093314;28;20116;-67
2022/01/07 03:11:01;;;;;;;12.00;5.25;;;;;;;2.88;92.15;101026.34;5074895;28;20024;-66
2022/01/07 03:13:26;;;;;;;14.98;5.40;;;;;;;2.97;91.93;101032.44;5092989;28;20024;-66
2022/01/07 03:15:52;;;;;;;11.18;5.40;;;;;;;2.84;92.58;101032.66;5092963;28;20012;-66
2022/01/07 03:18:17;;;;;;;12.63;5.85;;;;;;;2.91;92.13;101015.88;5074888;28;20114;-66
2022/01/07 03:20:42;;;;;;;11.20;6.20;;;;;;;2.83;92.38;101018.28;5093441;28;20032;-65
2022/01/07 03:23:11;;;;;;;12.80;5.85;;;;;;;2.80;92.63;101018.53;5093164;28;20105;-65
2022/01/07 03:25:37;;;;;;;11.50;5.55;;;;;;;2.85;91.87;101006.19;5074799;28;20024;-66
2022/01/07 03:28:03;;;;;;;10.55;5.70;;;;;;;2.87;92.47;101004.31;5095514;28;20043;-65
2022/01/07 03:30:29;;;;;;;10.98;5.38;;;;;;;2.88;92.30;101000.84;5096504;28;20466;-65
2022/01/07 03:32:55;;;;;;;11.73;5.60;;;;;;;2.75;92.15;100972.19;5096571;28;20074;-66
2022/01/07 03:35:20;;;;;;;10.82;5.50;;;;;;;2.82;92.42;100996.25;5096486;28;20055;-66
2022/01/07 03:37:48;;;;;;;10.88;6.15;;;;;;;2.85;92.44;100998.53;5096397;28;20027;-65
2022/01/07 03:40:14;;;;;;;12.40;6.10;;;;;;;2.89;92.54;100993.97;5096354;28;20399;-66
2022/01/07 03:42:39;;;;;;;12.88;5.68;;;;;;;2.93;92.38;100980.84;5096296;28;20035;-66
2022/01/07 03:45:06;;;;;;;9.63;5.50;;;;;;;2.82;92.06;100983.50;5096260;28;20032;-66
2022/01/07 03:47:32;;;;;;;12.13;6.10;;;;;;;2.83;92.61;100985.09;5096151;28;20113;-66
2022/01/07 03:49:57;;;;;;;11.25;5.43;;;;;;;2.93;92.51;100985.09;5077974;28;20047;-66
2022/01/07 03:52:22;;;;;;;10.60;5.28;;;;;;;2.90;92.55;100977.72;5096025;28;20020;-66
2022/01/07 03:54:50;;;;;;;9.55;6.10;;;;;;;2.92;92.58;100980.94;5096600;28;20024;-66
2022/01/07 03:57:15;;;;;;;12.32;6.63;;;;;;;2.86;93.04;100979.72;5077886;28;20048;-66
2022/01/07 03:59:41;;;;;;;10.45;6.75;;;;;;;2.84;92.98;100968.84;5096027;28;20047;-65
2022/01/07 04:02:06;;;;;;;10.48;5.80;;;;;;;3.01;93.00;100974.25;5077796;28;20178;-65
2022/01/07 04:04:31;;;;;;;8.50;5.70;;;;;;;2.98;93.00;100966.84;5077762;28;20028;-65
2022/01/07 04:06:57;;;;;;;13.38;6.85;;;;;;;3.00;93.13;100970.09;5095905;28;20081;-65
2022/01/07 04:09:22;;;;;;;9.07;6.03;;;;;;;2.97;93.13;100971.16;5077677;28;20032;-66
2022/01/07 04:11:47;;;;;;;10.90;6.35;;;;;;;2.93;93.14;100957.84;5077637;28;20024;-66
2022/01/07 04:14:13;;;;;;;13.65;6.68;;;;;;;2.98;93.30;100969.41;5095741;28;20509;-65
2022/01/07 04:16:38;;;;;;;10.18;6.63;;;;;;;2.93;93.74;100962.13;5095564;28;20119;-64
2022/01/07 04:19:03;;;;;;;11.40;6.72;;;;;;;3.05;93.78;100960.25;5095593;28;20110;-64
2022/01/07 04:21:29;;;;;;;9.15;6.38;;;;;;;2.92;93.59;100961.31;5095595;28;20110;-65
2022/01/07 04:23:54;;;;;;;10.32;6.75;;;;;;;3.04;93.59;100958.66;5077432;28;20516;-64
2022/01/07 04:26:19;;;;;;;13.57;6.80;;;;;;;3.00;93.39;100947.91;5095409;28;20065;-64
2022/01/07 04:28:44;;;;;;;10.52;7.30;;;;;;;3.05;93.55;100948.31;5095360;28;20107;-64
2022/01/07 04:31:10;;;;;;;10.40;7.25;;;;;;;3.10;93.27;100953.81;5095411;28;20038;-64
2022/01/07 04:33:35;;;;;;;12.10;7.10;;;;;;;3.06;93.73;100941.47;5077083;28;20035;-64
2022/01/07 04:36:01;;;;;;;10.80;7.35;;;;;;;3.08;93.52;100937.00;5095180;28;20601;-65
2022/01/07 04:38:27;;;;;;;12.18;7.70;;;;;;;3.12;93.72;100918.75;5095080;28;20024;-65
2022/01/07 04:40:52;;;;;;;11.23;7.35;;;;;;;3.10;93.41;100938.50;5095720;28;20027;-65
2022/01/07 04:43:18;;;;;;;10.95;7.22;;;;;;;3.01;93.50;100926.53;5076975;28;20028;-64
2022/01/07 04:45:43;;;;;;;11.23;7.65;;;;;;;2.97;94.16;100925.19;5095112;28;20024;-65
2022/01/07 04:48:09;;;;;;;15.75;8.20;;;;;;;2.94;94.59;100926.28;5095486;28;20024;-66
2022/01/07 04:50:35;;;;;;;11.90;7.68;;;;;;;3.11;94.12;100924.81;5076836;28;20027;-65
2022/01/07 04:53:01;;;;;;;12.73;7.68;;;;;;;3.16;93.86;100919.28;5094809;28;20399;-66
2022/01/07 04:55:37;;;;;;;10.18;7.97;;;;;;;3.22;94.11;100930.69;5076462;28;20391;-66
2022/01/07 04:58:11;;;;;;;11.25;7.88;;;;;;;3.22;94.30;100928.13;5094844;28;20023;-66
2022/01/07 05:00:38;;;;;;;12.07;7.90;;;;;;;3.15;93.79;100918.47;5094849;28;20034;-66
2022/01/07 05:03:04;;;;;;;12.48;7.93;;;;;;;3.23;93.84;100914.44;5095263;28;20024;-65
2022/01/07 05:05:29;;;;;;;12.77;8.10;;;;;;;3.22;94.17;100915.38;5076527;28;20053;-65
2022/01/07 05:07:55;;;;;;;10.98;7.65;;;;;;;3.31;93.95;100917.09;5094612;28;20043;-65
2022/01/07 05:10:20;;;;;;;15.23;8.20;;;;;;;3.39;93.63;100917.22;5094569;28;20028;-65
2022/01/07 05:12:46;;;;;;;12.10;8.40;;;;;;;3.50;93.06;100916.28;5095100;28;20072;-65
2022/01/07 05:15:13;;;;;;;14.93;9.30;;;;;;;3.35;94.19;100923.56;5076169;28;20058;-65
2022/01/07 05:17:38;;;;;;;13.10;8.82;;;;;;;3.44;93.69;100919.41;5094659;28;20054;-65
2022/01/07 05:20:04;;;;;;;15.93;8.88;;;;;;;3.54;93.69;100932.94;5094419;28;20020;-65
2022/01/07 05:22:30;;;;;;;12.68;8.95;;;;;;;3.61;93.58;100924.59;5094342;28;20134;-65
2022/01/07 05:24:55;;;;;;;15.70;9.40;;;;;;;3.59;93.67;100923.13;5076182;28;20024;-65
2022/01/07 05:27:21;;;;;;;14.68;9.43;;;;;;;3.61;93.73;100921.25;5094298;28;20027;-65
2022/01/07 05:29:46;;;;;;;13.93;9.48;;;;;;;3.65;93.27;100921.75;5094242;28;20028;-66
2022/01/07 05:32:12;;;;;;;13.55;9.38;;;;;;;3.65;93.17;100916.66;5076031;28;20024;-65
2022/01/07 05:34:37;;;;;;;12.50;9.27;;;;;;;3.75;93.76;100913.13;5075913;28;20028;-65
2022/01/07 05:37:03;;;;;;;12.77;9.23;;;;;;;3.86;93.57;100913.94;5075906;28;20032;-65
2022/01/07 05:39:28;;;;;;;13.40;9.10;;;;;;;3.88;92.82;100920.50;5094372;28;20466;-65
2022/01/07 05:41:53;;;;;;;15.45;8.80;;;;;;;3.84;93.38;100919.97;5075904;28;20047;-65
2022/01/07 05:44:19;;;;;;;18.42;8.98;;;;;;;3.88;93.61;100917.94;5075756;28;20028;-65
2022/01/07 05:46:45;;;;;;;15.07;9.57;;;;;;;3.94;93.38;100919.97;5093965;28;20016;-65
2022/01/07 05:49:10;;;;;;;13.50;9.30;;;;;;;3.93;93.65;100925.19;5075742;28;20031;-65
2022/01/07 05:51:36;;;;;;;15.15;9.35;;;;;;;3.92;93.28;100921.84;5075275;28;20027;-65
2022/01/07 05:54:01;;;;;;;15.05;9.13;;;;;;;3.98;93.65;100915.34;5075550;28;20031;-65
2022/01/07 05:56:26;;;;;;;18.80;10.85;;;;;;;4.06;93.68;100907.78;5075483;28;20127;-65
2022/01/07 05:58:52;;;;;;;18.70;9.70;;;;;;;4.11;93.46;100917.59;5093810;28;20158;-65
2022/01/07 06:01:17;;;;;;;17.60;9.77;;;;;;;4.13;93.37;100910.59;5093763;28;20031;-66
2022/01/07 06:03:43;;;;;;;19.17;10.07;;;;;;;4.22;93.57;100915.63;5075642;28;20374;-66
2022/01/07 06:06:08;;;;;;;19.67;9.55;;;;;;;4.30;92.59;100922.63;5093726;28;20052;-66
2022/01/07 06:08:34;;;;;;;13.98;9.45;;;;;;;4.21;92.53;100900.47;5093608;28;20027;-66
2022/01/07 06:10:59;;;;;;;18.95;10.05;;;;;;;4.26;93.39;100908.50;5075532;28;20483;-66
2022/01/07 06:13:25;;;;;;;18.95;10.02;;;;;;;4.32;92.92;100915.63;5093610;28;20111;-66
2022/01/07 06:15:50;;;;;;;17.30;9.68;;;;;;;4.34;93.10;100903.47;5093509;28;20024;-66
2022/01/07 06:18:16;;;;;;;16.15;10.13;;;;;;;4.37;93.01;100907.50;5093536;28;20027;-66
2022/01/07 06:20:41;;;;;;;19.13;10.07;;;;;;;4.27;93.26;100899.88;5075496;28;20032;-67
2022/01/07 06:23:06;;;;;;;15.27;9.45;;;;;;;4.33;92.86;100896.75;5093677;28;20073;-66
2022/01/07 06:25:32;;;;;;;17.50;9.88;;;;;;;4.37;93.27;100904.94;5093795;28;20020;-66
2022/01/07 06:27:57;;;;;;;18.40;10.40;;;;;;;4.29;93.07;100905.66;5075277;28;20102;-66
2022/01/07 06:30:22;;;;;;;20.83;9.90;;;;;;;4.37;93.35;100910.06;5093389;28;20093;-66
2022/01/07 06:32:48;;;;;;;17.50;10.02;;;;;;;4.39;93.18;100911.53;5093673;28;20047;-66
2022/01/07 06:35:13;;;;;;;25.17;11.43;;;;;;;4.42;92.87;100915.56;5093337;28;20157;-66
2022/01/07 06:37:39;;;;;;;18.40;9.80;;;;;;;4.46;92.94;100909.19;5093792;28;20052;-67
2022/01/07 06:40:06;;;;;;;22.95;9.43;;;;;;;4.41;93.39;100919.06;5093339;28;20047;-66
2022/01/07 06:42:32;;;;;;;19.85;9.55;;;;;;;4.43;93.35;100906.91;5093084;28;20031;-66
2022/01/07 06:44:58;;;;;;;19.60;9.48;;;;;;;4.45;93.09;100905.81;5093270;28;20020;-66
2022/01/07 06:47:23;;;;;;;16.10;9.88;;;;;;;4.56;92.81;100914.28;5075072;28;20467;-66
2022/01/07 06:49:49;;;;;;;14.80;9.48;;;;;;;4.54;92.59;100911.84;5074983;28;20035;-66
2022/01/07 06:52:14;;;;;;;25.23;9.68;;;;;;;4.56;92.08;100909.16;5093135;28;20484;-66
2022/01/07 06:54:39;;;;;;;18.52;9.82;;;;;;;4.57;92.15;100908.19;5093115;28;20359;-66
2022/01/07 06:57:05;;;;;;;17.15;9.85;;;;;;;4.62;92.42;100916.25;5074886;28;20079;-66
2022/01/07 06:59:30;;;;;;;24.48;9.85;;;;;;;4.61;93.13;100907.78;5093051;28;20034;-66
2022/01/07 07:01:55;;;;;;;26.10;10.30;;;;;;;4.67;91.66;100909.75;5093154;28;20020;-66
2022/01/07 07:04:21;;;;;;;17.65;9.85;;;;;;;4.67;92.24;100903.81;5096995;28;20026;-66
2022/01/07 07:06:46;;;;;;;22.73;10.40;;;;;;;4.70;91.82;100909.44;5078686;28;20031;-66
2022/01/07 07:09:12;;;;;;;22.85;10.48;;;;;;;4.65;92.61;100901.41;5096949;28;20020;-66
2022/01/07 07:11:39;;;;;;;23.05;9.85;;;;;;;4.54;92.38;100886.25;5096587;28;20028;-66
2022/01/07 07:14:05;;;;;;;21.33;9.55;;;;;;;4.63;92.24;100898.19;5095400;28;20420;-67
2022/01/07 07:16:30;;;;;;;20.95;10.88;;;;;;;4.65;92.46;100909.06;5076705;28;20130;-66
2022/01/07 07:18:55;;;;;;;23.23;11.40;;;;;;;4.71;92.84;100916.16;5077084;28;20076;-66
2022/01/07 07:21:20;;;;;;;21.13;10.65;;;;;;;4.72;92.58;100899.88;5096126;28;20024;-67
2022/01/07 07:23:46;;;;;;;21.05;10.40;;;;;;;4.71;92.30;100905.13;5078039;28;20115;-67
2022/01/07 07:26:11;;;;;;;20.48;10.55;;;;;;;4.83;91.83;100898.84;5096338;28;20105;-66
2022/01/07 07:28:38;;;;;;;25.65;10.88;;;;;;;4.68;92.52;100888.31;5096540;28;20023;-66
2022/01/07 07:31:06;;;;;;;18.38;10.10;;;;;;;4.69;92.35;100889.94;5096535;28;20015;-66
2022/01/07 07:33:55;;;;;;;26.33;9.48;;;;;;;4.69;92.44;100891.66;5078213;28;20049;-66
2022/01/07 07:36:27;;;;;;;15.73;9.77;;;;;;;4.77;92.40;100901.19;5096293;28;20067;-66
2022/01/07 07:39:19;;;;;;;17.92;10.02;;;;;;;4.70;92.47;100893.28;5077252;28;20026;-66
2022/01/07 07:41:44;;;;;;;18.60;9.65;;;;;;;4.72;92.19;100896.53;5092458;28;20044;-66
2022/01/07 07:44:10;;;;;;;22.33;9.15;;;;;;;4.78;91.71;100900.25;5096265;28;20069;-66
2022/01/07 07:46:37;;;;;;;15.73;9.63;;;;;;;4.83;91.80;100895.47;5096178;28;20031;-66
2022/01/07 07:49:05;;;;;;;24.20;10.43;;;;;;;4.86;91.96;100898.56;5096200;28;20085;-66
2022/01/07 07:51:30;;;;;;;17.45;10.15;;;;;;;4.77;91.29;100907.09;5077984;28;20413;-66
2022/01/07 07:53:56;;;;;;;23.02;10.43;;;;;;;4.75;91.49;100904.72;5077830;28;20024;-65
2022/01/07 07:56:22;;;;;;;18.98;9.75;;;;;;;4.69;91.85;100907.03;5095754;28;20102;-65
2022/01/07 07:58:48;;;;;;;21.02;9.90;;;;;;;4.69;92.01;100896.78;5095933;28;20026;-65
2022/01/07 08:01:14;;;;;;;21.20;10.35;;;;;;;4.67;91.98;100896.16;5077750;28;20028;-66
2022/01/07 08:03:40;;;;;;;21.38;10.27;;;;;;;4.74;92.03;100897.16;5095895;28;20071;-66
2022/01/07 08:06:06;;;;;;;19.30;10.23;;;;;;;4.73;92.40;100896.34;5095826;28;20142;-65
2022/01/07 08:08:32;;;;;;;21.85;9.82;;;;;;;4.67;91.82;100894.38;5095791;28;20075;-66
2022/01/07 08:11:01;;;;;;;17.38;10.07;;;;;;;4.73;92.36;100905.81;5077642;28;20398;-66
2022/01/07 08:13:30;;;;;;;22.58;10.48;;;;;;;4.75;92.61;100909.03;5077141;28;20020;-65
2022/01/07 08:16:05;;;;;;;18.33;10.27;;;;;;;4.85;91.26;100904.63;5095918;28;20024;-65
2022/01/07 08:18:33;;;;;;;23.80;10.35;;;;;;;4.76;91.62;100910.63;5095626;28;20098;-65
2022/01/07 08:21:03;;;;;;;16.48;10.00;;;;;;;4.72;92.13;100925.47;5095679;28;20030;-64
2022/01/07 08:23:30;;;;;;;20.35;10.27;;;;;;;4.70;92.06;100913.78;5095574;28;20148;-67
2022/01/07 08:25:56;;;;;;;26.25;10.27;;;;;;;4.63;91.81;100892.25;5095571;28;20483;-65
2022/01/07 08:28:25;;;;;;;20.17;9.40;;;;;;;4.75;91.64;100907.28;5077678;28;20101;-68
2022/01/07 08:36:16;;;;;;;17.55;8.98;;;;;;;4.75;91.66;100914.94;5098809;28;20081;-67
2022/01/07 08:38:42;;;;;;;16.35;9.07;;;;;;;4.79;91.24;100912.09;5077059;28;20028;-66
2022/01/07 08:41:07;;;;;;;17.92;8.75;;;;;;;4.66;91.60;100903.03;5095285;28;20494;-66
2022/01/07 08:43:33;;;;;;;18.00;8.38;;;;;;;4.69;91.38;100912.97;5095507;28;20024;-65
2022/01/07 08:45:59;;;;;;;22.13;8.85;;;;;;;4.51;91.84;100900.13;5077467;28;20016;-65
2022/01/07 08:48:27;;;;;;;16.15;7.95;;;;;;;4.56;92.34;100916.81;5077243;28;20109;-66
2022/01/07 08:50:53;;;;;;;17.15;7.75;;;;;;;4.65;91.52;100905.72;5077177;28;20024;-66
2022/01/07 08:53:19;;;;;;;15.50;7.20;;;;;;;4.70;91.01;100904.34;5095315;28;20090;-65
2022/01/07 08:55:45;;;;;;;18.60;7.68;;;;;;;4.67;90.58;100908.94;5094536;28;20479;-65
2022/01/07 08:58:10;;;;;;;20.90;8.38;;;;;;;4.86;90.70;100905.44;5095295;28;20024;-65
2022/01/07 09:00:35;;;;;;;17.52;7.93;;;;;;;5.04;89.91;100905.44;5094632;28;20553;-65
2022/01/07 09:03:01;;;;;;;19.00;8.20;;;;;;;5.27;88.66;100910.91;5094727;28;20031;-65
2022/01/07 09:05:26;;;;;;;17.67;8.10;;;;;;;5.30;88.52;100901.16;5076411;28;20493;-65
2022/01/07 09:07:52;;;;;;;17.88;7.05;;;;;;;5.22;87.94;100880.59;5094498;28;20032;-66
2022/01/07 09:10:17;;;;;;;18.67;7.43;;;;;;;5.54;87.31;100900.50;5094506;28;20512;-65
2022/01/07 09:12:44;;;;;;;21.88;7.18;;;;;;;5.31;87.99;100895.06;5076969;28;20058;-66
2022/01/07 09:15:10;;;;;;;12.88;6.40;;;;;;;5.16;87.67;100910.19;5077419;28;20035;-66
2022/01/07 09:17:36;;;;;;;17.27;6.80;;;;;;;4.91;89.58;100903.25;5093417;28;20016;-67
2022/01/07 09:20:03;;;;;;;13.57;6.30;;;;;;;4.99;89.25;100900.75;5075841;28;20493;-65
2022/01/07 09:22:28;;;;;;;12.90;6.47;;;;;;;5.22;88.42;100880.59;5076703;28;20028;-66
2022/01/07 09:24:53;;;;;;;15.63;6.30;;;;;;;5.54;87.17;100895.38;5093401;28;20047;-65
2022/01/07 09:27:19;;;;;;;12.52;6.13;;;;;;;5.54;87.07;100892.81;5094281;28;20028;-64
2022/01/07 09:29:44;;;;;;;15.90;6.00;;;;;;;5.76;86.14;100883.81;5076023;28;20489;-65
2022/01/07 09:32:09;;;;;;;14.65;5.90;;;;;;;5.80;86.32;100892.00;5094715;28;20039;-65
2022/01/07 09:34:36;;;;;;;16.15;6.10;;;;;;;5.99;85.63;100899.50;5075926;28;20024;-65
2022/01/07 09:37:04;;;;;;;13.93;5.65;;;;;;;5.84;85.30;100888.16;5094324;28;20031;-65
2022/01/07 09:39:31;;;;;;;13.30;6.00;;;;;;;6.18;83.93;100885.63;5094376;28;20032;-65
2022/01/07 09:41:57;;;;;;;15.02;5.20;;;;;;;6.68;83.58;100910.47;5093952;28;20020;-66
2022/01/07 09:44:22;;;;;;;10.48;5.10;;;;;;;6.12;84.88;100893.94;5093869;28;20086;-65
2022/01/07 09:46:47;;;;;;;15.57;4.97;;;;;;;6.38;84.86;100896.44;5094200;28;20035;-66
2022/01/07 09:49:13;;;;;;;17.20;6.40;;;;;;;6.22;84.67;100897.19;5093727;28;20023;-65
2022/01/07 09:51:39;;;;;;;15.52;5.20;;;;;;;6.39;83.96;100894.66;5093779;28;20027;-65
2022/01/07 09:54:06;;;;;;;12.05;4.93;;;;;;;6.14;84.60;100897.16;5093623;28;20512;-65
2022/01/07 09:56:31;;;;;;;15.40;4.85;;;;;;;6.48;84.27;100891.97;5093419;28;20398;-65
2022/01/07 09:58:56;;;;;;;12.32;4.57;;;;;;;6.44;83.43;100890.66;5093833;28;20032;-65
2022/01/07 10:01:25;;;;;;;16.05;5.30;;;;;;;6.69;83.92;100895.84;5075333;28;20443;-63
2022/01/07 10:03:51;;;;;;;12.52;4.90;;;;;;;7.15;82.38;100901.34;5093593;28;20111;-64
2022/01/07 10:06:23;;;;;;;13.00;5.38;;;;;;;7.02;83.04;100901.84;5075442;28;20111;-65
2022/01/07 10:09:10;;;;;;;14.68;5.15;;;;;;;6.54;83.93;100895.69;5075599;28;20205;-66
2022/01/07 10:11:35;;;;;;;11.93;5.13;;;;;;;6.29;85.15;100892.22;5093563;28;20099;-65
2022/01/07 10:14:18;;;;;;;12.65;5.20;;;;;;;6.41;85.16;100893.53;5093452;28;20058;-66
2022/01/07 10:16:58;;;;;;;13.02;5.32;;;;;;;6.75;82.26;100903.72;5093453;28;20024;-65
2022/01/07 10:19:41;;;;;;;15.20;5.80;;;;;;;6.53;84.46;100894.88;5094043;28;20020;-63
2022/01/07 10:22:14;;;;;;;14.02;5.85;;;;;;;6.25;84.30;100891.75;5074659;28;20024;-65
2022/01/07 10:24:54;;;;;;;18.48;5.60;;;;;;;6.21;84.21;100890.44;5092850;28;20111;-65
2022/01/07 10:27:20;;;;;;;24.35;6.40;;;;;;;6.05;84.46;100890.41;5074648;28;20109;-66
2022/01/07 10:29:46;;;;;;;15.32;5.35;;;;;;;5.79;85.17;100862.19;5074580;28;20475;-65
2022/01/07 10:32:25;;;;;;;16.92;6.30;;;;;;;6.10;86.35;100872.78;5074641;28;20527;-65
2022/01/07 10:35:17;;;;;;;17.75;6.25;;;;;;;5.93;85.19;100863.34;5092602;28;20024;-65
2022/01/07 10:37:47;;;;;;;15.88;5.57;;;;;;;6.01;86.10;100887.34;5077867;28;20024;-66
2022/01/07 10:40:25;;;;;;;14.55;5.75;;;;;;;6.95;82.13;100873.38;5095954;28;20055;-66
2022/01/07 10:42:53;;;;;;;14.73;5.15;;;;;;;6.78;82.04;100871.78;5097263;28;20035;-66
2022/01/07 10:45:19;;;;;;;20.35;5.05;;;;;;;6.02;84.24;100854.78;5097410;28;20098;-68
2022/01/07 10:47:52;;;;;;;13.65;5.03;;;;;;;6.24;84.61;100876.50;5094844;28;20024;-66
2022/01/07 10:50:23;;;;;;;10.93;5.35;;;;;;;7.73;78.65;100874.56;5096379;28;20024;-65
2022/01/07 10:52:49;;;;;;;14.88;4.72;;;;;;;7.96;76.34;100882.34;5096866;28;20422;-66
2022/01/07 10:55:20;;;;;;;13.88;4.32;;;;;;;8.54;74.86;100877.75;5097320;28;20020;-69
2022/01/07 10:57:49;;;;;;;10.50;4.40;;;;;;;7.44;78.21;100869.97;5097677;28;20097;-66
2022/01/07 11:00:20;;;;;;;9.90;4.82;;;;;;;7.82;76.26;100872.75;5096875;28;20038;-65
2022/01/07 11:02:46;;;;;;;13.05;3.90;;;;;;;7.63;76.51;100867.03;5078926;28;20060;-66
2022/01/07 11:05:13;;;;;;;12.15;4.18;;;;;;;7.36;78.43;100863.06;5096995;28;20077;-66
2022/01/07 11:07:38;;;;;;;9.27;3.80;;;;;;;7.62;76.48;100851.75;5097008;28;20032;-66
2022/01/07 11:10:05;;;;;;;11.00;3.90;;;;;;;7.10;78.28;100868.41;5096963;28;20100;-66
2022/01/07 11:12:32;;;;;;;8.98;4.03;;;;;;;7.01;79.32;100859.91;5078719;28;20450;-66
2022/01/07 11:14:58;;;;;;;13.00;3.72;;;;;;;7.01;79.12;100865.03;5096642;28;20024;-66
2022/01/07 11:17:24;;;;;;;13.63;3.45;;;;;;;6.92;79.21;100876.28;5097122;28;20111;-66
2022/01/07 11:19:57;;;;;;;11.15;3.50;;;;;;;8.03;74.75;100865.28;5097103;28;20099;-65
2022/01/07 11:22:24;;;;;;;11.05;3.13;;;;;;;7.81;75.32;100856.53;5096161;28;20449;-66
2022/01/07 11:25:03;;;;;;;10.10;3.55;;;;;;;7.53;77.66;100853.56;5078472;28;20395;-64
2022/01/07 11:27:28;;;;;;;12.90;3.80;;;;;;;7.52;77.44;100853.75;5095928;28;20089;-66